sensor_id;sensor_type;location;lat;lon;timestamp;temperature;humidity
53272;DHT22;39160;48.580;7.756;2023-06-22T00:01:50;25.50;95.70
53272;DHT22;39160;48.580;7.756;2023-06-22T00:06:41;25.30;96.10
53272;DHT22;39160;48.580;7.756;2023-06-22T00:11:32;25.40;96.20
53272;DHT22;39160;48.580;7.756;2023-06-22T00:16:23;25.30;96.30
53272;DHT22;39160;48.580;7.756;2023-06-22T00:21:14;25.20;96.70
53272;DHT22;39160;48.580;7.756;2023-06-22T00:26:05;25.10;96.90
53272;DHT22;39160;48.580;7.756;2023-06-22T00:30:55;25.20;97.20
53272;DHT22;39160;48.580;7.756;2023-06-22T00:35:46;25.00;97.70
53272;DHT22;39160;48.580;7.756;2023-06-22T00:40:37;25.00;98.20
53272;DHT22;39160;48.580;7.756;2023-06-22T00:45:27;25.00;97.90
53272;DHT22;39160;48.580;7.756;2023-06-22T00:50:21;25.10;98.20
53272;DHT22;39160;48.580;7.756;2023-06-22T00:55:13;25.20;98.20
53272;DHT22;39160;48.580;7.756;2023-06-22T01:00:05;25.10;98.50
53272;DHT22;39160;48.580;7.756;2023-06-22T01:04:57;25.10;98.80
53272;DHT22;39160;48.580;7.756;2023-06-22T01:15:13;25.00;99.10
53272;DHT22;39160;48.580;7.756;2023-06-22T01:20:06;25.20;99.20
53272;DHT22;39160;48.580;7.756;2023-06-22T01:25:09;25.30;99.00
53272;DHT22;39160;48.580;7.756;2023-06-22T01:30:02;25.30;99.10
53272;DHT22;39160;48.580;7.756;2023-06-22T01:34:54;25.20;99.40
53272;DHT22;39160;48.580;7.756;2023-06-22T01:39:45;25.20;99.60
53272;DHT22;39160;48.580;7.756;2023-06-22T01:44:36;25.20;99.60
53272;DHT22;39160;48.580;7.756;2023-06-22T01:49:28;25.00;99.90
53272;DHT22;39160;48.580;7.756;2023-06-22T01:54:18;24.80;99.90
53272;DHT22;39160;48.580;7.756;2023-06-22T02:09:35;24.80;99.90
53272;DHT22;39160;48.580;7.756;2023-06-22T02:14:28;24.80;99.90
53272;DHT22;39160;48.580;7.756;2023-06-22T02:19:23;24.80;99.90
53272;DHT22;39160;48.580;7.756;2023-06-22T02:24:15;24.80;99.90
53272;DHT22;39160;48.580;7.756;2023-06-22T02:29:05;24.80;99.90
53272;DHT22;39160;48.580;7.756;2023-06-22T02:33:58;24.70;99.90
53272;DHT22;39160;48.580;7.756;2023-06-22T02:38:48;24.70;99.90
53272;DHT22;39160;48.580;7.756;2023-06-22T02:43:39;24.60;99.90
53272;DHT22;39160;48.580;7.756;2023-06-22T02:48:31;24.60;99.90
53272;DHT22;39160;48.580;7.756;2023-06-22T02:53:21;24.60;99.90
53272;DHT22;39160;48.580;7.756;2023-06-22T02:58:12;24.50;99.90
53272;DHT22;39160;48.580;7.756;2023-06-22T03:03:03;24.50;99.90
53272;DHT22;39160;48.580;7.756;2023-06-22T03:07:53;24.30;99.90
53272;DHT22;39160;48.580;7.756;2023-06-22T03:12:44;24.40;99.90
53272;DHT22;39160;48.580;7.756;2023-06-22T03:17:36;24.30;99.90
53272;DHT22;39160;48.580;7.756;2023-06-22T03:22:27;24.30;99.90
53272;DHT22;39160;48.580;7.756;2023-06-22T03:27:17;24.30;99.90
53272;DHT22;39160;48.580;7.756;2023-06-22T03:32:09;24.00;99.90
53272;DHT22;39160;48.580;7.756;2023-06-22T03:36:59;24.20;99.90
53272;DHT22;39160;48.580;7.756;2023-06-22T03:41:50;24.20;99.90
53272;DHT22;39160;48.580;7.756;2023-06-22T03:46:41;24.10;99.90
53272;DHT22;39160;48.580;7.756;2023-06-22T03:51:32;24.00;99.90
53272;DHT22;39160;48.580;7.756;2023-06-22T03:56:23;24.10;99.90
53272;DHT22;39160;48.580;7.756;2023-06-22T04:01:14;24.20;99.90
53272;DHT22;39160;48.580;7.756;2023-06-22T04:06:04;24.10;99.90
53272;DHT22;39160;48.580;7.756;2023-06-22T04:10:55;24.00;99.90
53272;DHT22;39160;48.580;7.756;2023-06-22T04:15:47;23.80;99.90
53272;DHT22;39160;48.580;7.756;2023-06-22T04:20:37;23.80;99.90
53272;DHT22;39160;48.580;7.756;2023-06-22T04:25:28;24.00;99.90
53272;DHT22;39160;48.580;7.756;2023-06-22T04:30:19;23.90;99.90
53272;DHT22;39160;48.580;7.756;2023-06-22T04:35:10;23.80;99.90
53272;DHT22;39160;48.580;7.756;2023-06-22T04:40:01;23.90;99.90
53272;DHT22;39160;48.580;7.756;2023-06-22T04:44:54;24.00;99.90
53272;DHT22;39160;48.580;7.756;2023-06-22T04:49:44;23.90;99.90
53272;DHT22;39160;48.580;7.756;2023-06-22T04:54:36;24.00;99.90
53272;DHT22;39160;48.580;7.756;2023-06-22T04:59:29;23.90;99.90
53272;DHT22;39160;48.580;7.756;2023-06-22T05:04:21;24.00;99.90
53272;DHT22;39160;48.580;7.756;2023-06-22T05:09:12;24.00;99.90
53272;DHT22;39160;48.580;7.756;2023-06-22T05:14:03;24.10;99.90
53272;DHT22;39160;48.580;7.756;2023-06-22T05:18:55;24.30;99.90
53272;DHT22;39160;48.580;7.756;2023-06-22T05:23:46;24.40;99.90
53272;DHT22;39160;48.580;7.756;2023-06-22T05:28:36;24.10;99.90
53272;DHT22;39160;48.580;7.756;2023-06-22T05:33:27;24.10;99.90
53272;DHT22;39160;48.580;7.756;2023-06-22T05:38:18;24.10;99.90
53272;DHT22;39160;48.580;7.756;2023-06-22T05:43:08;24.30;99.90
53272;DHT22;39160;48.580;7.756;2023-06-22T05:47:59;24.50;99.90
53272;DHT22;39160;48.580;7.756;2023-06-22T05:52:50;24.60;99.90
53272;DHT22;39160;48.580;7.756;2023-06-22T05:57:40;24.60;99.90
53272;DHT22;39160;48.580;7.756;2023-06-22T06:02:31;24.50;99.90
53272;DHT22;39160;48.580;7.756;2023-06-22T06:07:21;24.50;99.90
53272;DHT22;39160;48.580;7.756;2023-06-22T06:12:12;24.40;99.90
53272;DHT22;39160;48.580;7.756;2023-06-22T06:17:03;24.50;99.90
53272;DHT22;39160;48.580;7.756;2023-06-22T06:21:54;24.70;99.90
53272;DHT22;39160;48.580;7.756;2023-06-22T06:26:45;24.90;99.90
53272;DHT22;39160;48.580;7.756;2023-06-22T06:31:35;25.00;99.90
53272;DHT22;39160;48.580;7.756;2023-06-22T06:36:26;24.90;99.90
53272;DHT22;39160;48.580;7.756;2023-06-22T06:41:17;25.40;99.90
53272;DHT22;39160;48.580;7.756;2023-06-22T06:46:07;25.60;99.90
53272;DHT22;39160;48.580;7.756;2023-06-22T06:50:58;25.50;99.90
53272;DHT22;39160;48.580;7.756;2023-06-22T06:55:49;25.60;99.90
53272;DHT22;39160;48.580;7.756;2023-06-22T07:00:40;25.70;99.90
53272;DHT22;39160;48.580;7.756;2023-06-22T07:05:30;25.90;99.90
53272;DHT22;39160;48.580;7.756;2023-06-22T07:10:21;25.90;99.90
53272;DHT22;39160;48.580;7.756;2023-06-22T07:15:13;25.90;99.90
53272;DHT22;39160;48.580;7.756;2023-06-22T07:20:04;25.80;99.90
53272;DHT22;39160;48.580;7.756;2023-06-22T07:25:02;25.90;99.90
53272;DHT22;39160;48.580;7.756;2023-06-22T07:29:59;26.10;99.90
53272;DHT22;39160;48.580;7.756;2023-06-22T07:34:49;26.10;99.90
53272;DHT22;39160;48.580;7.756;2023-06-22T07:39:40;26.30;99.90
53272;DHT22;39160;48.580;7.756;2023-06-22T07:44:32;26.50;99.90
53272;DHT22;39160;48.580;7.756;2023-06-22T07:49:23;26.70;99.90
53272;DHT22;39160;48.580;7.756;2023-06-22T07:54:14;26.70;99.90
53272;DHT22;39160;48.580;7.756;2023-06-22T07:59:06;26.70;99.90
53272;DHT22;39160;48.580;7.756;2023-06-22T08:03:56;26.80;99.90
53272;DHT22;39160;48.580;7.756;2023-06-22T08:08:47;27.10;99.90
53272;DHT22;39160;48.580;7.756;2023-06-22T08:13:39;27.50;99.90
53272;DHT22;39160;48.580;7.756;2023-06-22T08:18:29;27.60;99.90
53272;DHT22;39160;48.580;7.756;2023-06-22T08:23:20;27.70;99.90
53272;DHT22;39160;48.580;7.756;2023-06-22T08:28:11;28.00;99.90
53272;DHT22;39160;48.580;7.756;2023-06-22T08:33:03;28.10;99.90
53272;DHT22;39160;48.580;7.756;2023-06-22T08:37:54;28.10;99.90
53272;DHT22;39160;48.580;7.756;2023-06-22T08:42:47;28.20;99.90
53272;DHT22;39160;48.580;7.756;2023-06-22T08:47:39;28.20;99.90
53272;DHT22;39160;48.580;7.756;2023-06-22T08:52:30;28.20;99.90
53272;DHT22;39160;48.580;7.756;2023-06-22T08:57:21;28.30;99.90
53272;DHT22;39160;48.580;7.756;2023-06-22T09:02:12;28.50;99.90
53272;DHT22;39160;48.580;7.756;2023-06-22T09:07:03;28.50;99.90
53272;DHT22;39160;48.580;7.756;2023-06-22T09:11:54;28.50;99.80
53272;DHT22;39160;48.580;7.756;2023-06-22T09:16:45;28.70;99.70
53272;DHT22;39160;48.580;7.756;2023-06-22T09:21:35;28.90;99.50
53272;DHT22;39160;48.580;7.756;2023-06-22T09:26:26;28.80;99.30
53272;DHT22;39160;48.580;7.756;2023-06-22T09:31:17;28.80;99.10
53272;DHT22;39160;48.580;7.756;2023-06-22T09:36:07;28.80;99.00
53272;DHT22;39160;48.580;7.756;2023-06-22T09:40:58;28.80;98.90
53272;DHT22;39160;48.580;7.756;2023-06-22T09:45:48;28.70;98.80
53272;DHT22;39160;48.580;7.756;2023-06-22T09:50:39;28.90;98.60
53272;DHT22;39160;48.580;7.756;2023-06-22T09:55:30;29.20;98.30
53272;DHT22;39160;48.580;7.756;2023-06-22T10:00:20;29.20;98.40
53272;DHT22;39160;48.580;7.756;2023-06-22T10:05:12;29.20;98.10
53272;DHT22;39160;48.580;7.756;2023-06-22T10:10:02;29.30;98.00
53272;DHT22;39160;48.580;7.756;2023-06-22T10:14:53;29.50;97.70
53272;DHT22;39160;48.580;7.756;2023-06-22T10:19:44;29.70;97.60
53272;DHT22;39160;48.580;7.756;2023-06-22T10:24:35;30.00;97.20
53272;DHT22;39160;48.580;7.756;2023-06-22T10:29:25;29.90;97.20
53272;DHT22;39160;48.580;7.756;2023-06-22T10:34:16;29.90;97.00
53272;DHT22;39160;48.580;7.756;2023-06-22T10:39:06;30.00;96.90
53272;DHT22;39160;48.580;7.756;2023-06-22T10:43:57;30.20;96.50
53272;DHT22;39160;48.580;7.756;2023-06-22T10:48:48;30.40;96.40
53272;DHT22;39160;48.580;7.756;2023-06-22T10:53:39;30.60;96.20
53272;DHT22;39160;48.580;7.756;2023-06-22T10:58:29;30.80;95.90
53272;DHT22;39160;48.580;7.756;2023-06-22T11:03:20;30.70;95.90
53272;DHT22;39160;48.580;7.756;2023-06-22T11:08:11;30.80;95.70
53272;DHT22;39160;48.580;7.756;2023-06-22T11:13:01;30.90;95.50
53272;DHT22;39160;48.580;7.756;2023-06-22T11:17:54;30.70;95.40
53272;DHT22;39160;48.580;7.756;2023-06-22T11:22:45;30.70;95.10
53272;DHT22;39160;48.580;7.756;2023-06-22T11:27:35;30.80;95.10
53272;DHT22;39160;48.580;7.756;2023-06-22T11:32:26;31.10;94.70
53272;DHT22;39160;48.580;7.756;2023-06-22T11:37:17;31.10;94.50
53272;DHT22;39160;48.580;7.756;2023-06-22T11:42:08;31.10;94.40
53272;DHT22;39160;48.580;7.756;2023-06-22T11:46:59;31.20;94.30
53272;DHT22;39160;48.580;7.756;2023-06-22T11:51:51;31.20;94.20
53272;DHT22;39160;48.580;7.756;2023-06-22T11:56:41;31.10;94.30
53272;DHT22;39160;48.580;7.756;2023-06-22T12:01:32;30.80;94.40
53272;DHT22;39160;48.580;7.756;2023-06-22T12:06:23;30.80;94.30
53272;DHT22;39160;48.580;7.756;2023-06-22T12:11:14;31.00;94.20
53272;DHT22;39160;48.580;7.756;2023-06-22T12:16:04;31.30;94.00
53272;DHT22;39160;48.580;7.756;2023-06-22T12:20:55;31.60;94.10
53272;DHT22;39160;48.580;7.756;2023-06-22T12:25:46;31.60;94.00
53272;DHT22;39160;48.580;7.756;2023-06-22T12:30:36;31.60;93.90
53272;DHT22;39160;48.580;7.756;2023-06-22T12:35:27;32.10;93.70
53272;DHT22;39160;48.580;7.756;2023-06-22T12:40:18;31.90;93.50
53272;DHT22;39160;48.580;7.756;2023-06-22T12:45:09;31.30;93.60
53272;DHT22;39160;48.580;7.756;2023-06-22T12:50:00;31.90;93.50
53272;DHT22;39160;48.580;7.756;2023-06-22T12:54:50;32.40;93.00
53272;DHT22;39160;48.580;7.756;2023-06-22T12:59:42;32.40;92.90
53272;DHT22;39160;48.580;7.756;2023-06-22T13:04:33;34.00;92.40
53272;DHT22;39160;48.580;7.756;2023-06-22T13:09:23;34.50;91.80
53272;DHT22;39160;48.580;7.756;2023-06-22T13:14:14;35.90;91.20
53272;DHT22;39160;48.580;7.756;2023-06-22T13:19:06;35.00;90.90
53272;DHT22;39160;48.580;7.756;2023-06-22T13:23:57;32.80;91.90
53272;DHT22;39160;48.580;7.756;2023-06-22T13:28:48;32.00;92.10
53272;DHT22;39160;48.580;7.756;2023-06-22T13:33:38;33.90;91.40
53272;DHT22;39160;48.580;7.756;2023-06-22T13:38:31;34.90;90.30
53272;DHT22;39160;48.580;7.756;2023-06-22T13:43:22;34.90;90.20
53272;DHT22;39160;48.580;7.756;2023-06-22T13:48:13;35.20;90.00
53272;DHT22;39160;48.580;7.756;2023-06-22T13:53:04;36.80;87.70
53272;DHT22;39160;48.580;7.756;2023-06-22T13:57:54;37.40;86.20
53272;DHT22;39160;48.580;7.756;2023-06-22T14:02:45;35.80;87.20
53272;DHT22;39160;48.580;7.756;2023-06-22T14:07:36;35.90;87.00
53272;DHT22;39160;48.580;7.756;2023-06-22T14:12:27;36.90;84.50
53272;DHT22;39160;48.580;7.756;2023-06-22T14:17:18;36.00;84.60
53272;DHT22;39160;48.580;7.756;2023-06-22T14:22:14;35.80;84.50
53272;DHT22;39160;48.580;7.756;2023-06-22T14:27:04;35.50;84.10
53272;DHT22;39160;48.580;7.756;2023-06-22T14:31:58;36.70;81.80
53272;DHT22;39160;48.580;7.756;2023-06-22T14:36:49;36.30;81.70
53272;DHT22;39160;48.580;7.756;2023-06-22T14:41:39;37.60;79.50
53272;DHT22;39160;48.580;7.756;2023-06-22T14:46:30;37.70;78.90
53272;DHT22;39160;48.580;7.756;2023-06-22T14:51:21;38.10;78.20
53272;DHT22;39160;48.580;7.756;2023-06-22T14:56:11;39.40;76.70
53272;DHT22;39160;48.580;7.756;2023-06-22T15:01:03;39.90;74.70
53272;DHT22;39160;48.580;7.756;2023-06-22T15:05:54;40.10;74.70
53272;DHT22;39160;48.580;7.756;2023-06-22T15:10:45;40.20;74.80
53272;DHT22;39160;48.580;7.756;2023-06-22T15:15:36;39.10;74.20
53272;DHT22;39160;48.580;7.756;2023-06-22T15:20:26;38.20;73.50
53272;DHT22;39160;48.580;7.756;2023-06-22T15:25:17;36.30;74.90
53272;DHT22;39160;48.580;7.756;2023-06-22T15:30:08;35.10;75.90
53272;DHT22;39160;48.580;7.756;2023-06-22T15:34:58;35.00;75.60
53272;DHT22;39160;48.580;7.756;2023-06-22T15:39:49;34.30;76.20
53272;DHT22;39160;48.580;7.756;2023-06-22T15:44:41;33.90;76.60
53272;DHT22;39160;48.580;7.756;2023-06-22T15:49:31;36.50;74.10
53272;DHT22;39160;48.580;7.756;2023-06-22T15:54:22;38.70;71.60
53272;DHT22;39160;48.580;7.756;2023-06-22T15:59:12;39.20;70.10
53272;DHT22;39160;48.580;7.756;2023-06-22T16:04:03;40.20;68.70
53272;DHT22;39160;48.580;7.756;2023-06-22T16:08:56;40.10;67.30
53272;DHT22;39160;48.580;7.756;2023-06-22T16:13:47;38.90;67.60
53272;DHT22;39160;48.580;7.756;2023-06-22T16:18:38;37.70;68.00
53272;DHT22;39160;48.580;7.756;2023-06-22T16:23:30;36.60;69.10
53272;DHT22;39160;48.580;7.756;2023-06-22T16:28:22;35.50;69.80
53272;DHT22;39160;48.580;7.756;2023-06-22T16:33:13;35.20;70.10
53272;DHT22;39160;48.580;7.756;2023-06-22T16:38:03;35.00;70.60
53272;DHT22;39160;48.580;7.756;2023-06-22T16:42:54;34.70;70.60
53272;DHT22;39160;48.580;7.756;2023-06-22T16:47:46;34.40;71.40
53272;DHT22;39160;48.580;7.756;2023-06-22T16:52:38;33.70;72.40
53272;DHT22;39160;48.580;7.756;2023-06-22T16:57:28;33.20;73.20
53272;DHT22;39160;48.580;7.756;2023-06-22T17:02:22;32.90;73.60
53272;DHT22;39160;48.580;7.756;2023-06-22T17:07:19;32.70;74.20
53272;DHT22;39160;48.580;7.756;2023-06-22T17:12:10;32.30;74.60
53272;DHT22;39160;48.580;7.756;2023-06-22T17:17:02;31.90;75.30
53272;DHT22;39160;48.580;7.756;2023-06-22T17:21:53;31.60;75.10
53272;DHT22;39160;48.580;7.756;2023-06-22T17:26:52;31.50;74.50
53272;DHT22;39160;48.580;7.756;2023-06-22T17:31:43;31.40;73.50
53272;DHT22;39160;48.580;7.756;2023-06-22T17:36:46;31.20;73.00
53272;DHT22;39160;48.580;7.756;2023-06-22T17:41:43;31.40;72.40
53272;DHT22;39160;48.580;7.756;2023-06-22T17:46:35;31.90;71.10
53272;DHT22;39160;48.580;7.756;2023-06-22T17:51:26;31.80;70.80
53272;DHT22;39160;48.580;7.756;2023-06-22T17:56:18;31.40;70.90
53272;DHT22;39160;48.580;7.756;2023-06-22T18:01:13;31.10;70.90
53272;DHT22;39160;48.580;7.756;2023-06-22T18:06:04;30.90;70.80
53272;DHT22;39160;48.580;7.756;2023-06-22T18:10:56;30.90;70.60
53272;DHT22;39160;48.580;7.756;2023-06-22T18:15:49;31.00;70.50
53272;DHT22;39160;48.580;7.756;2023-06-22T18:20:42;31.00;70.60
53272;DHT22;39160;48.580;7.756;2023-06-22T18:25:34;30.70;70.80
53272;DHT22;39160;48.580;7.756;2023-06-22T18:30:26;30.50;71.30
53272;DHT22;39160;48.580;7.756;2023-06-22T18:35:18;30.20;72.20
53272;DHT22;39160;48.580;7.756;2023-06-22T18:40:10;29.40;75.10
53272;DHT22;39160;48.580;7.756;2023-06-22T18:45:25;29.00;77.20
53272;DHT22;39160;48.580;7.756;2023-06-22T18:55:30;28.50;79.90
53272;DHT22;39160;48.580;7.756;2023-06-22T19:00:30;28.20;80.40
53272;DHT22;39160;48.580;7.756;2023-06-22T19:05:41;28.00;81.90
53272;DHT22;39160;48.580;7.756;2023-06-22T19:10:41;27.60;82.70
53272;DHT22;39160;48.580;7.756;2023-06-22T19:15:36;27.00;84.60
53272;DHT22;39160;48.580;7.756;2023-06-22T19:20:32;25.20;88.30
53272;DHT22;39160;48.580;7.756;2023-06-22T19:25:28;24.70;90.10
53272;DHT22;39160;48.580;7.756;2023-06-22T19:30:21;24.90;90.70
53272;DHT22;39160;48.580;7.756;2023-06-22T19:35:18;25.40;90.90
53272;DHT22;39160;48.580;7.756;2023-06-22T19:40:14;25.70;91.40
53272;DHT22;39160;48.580;7.756;2023-06-22T19:45:06;25.70;91.70
53272;DHT22;39160;48.580;7.756;2023-06-22T19:50:01;25.60;92.40
53272;DHT22;39160;48.580;7.756;2023-06-22T19:54:53;25.30;93.10
53272;DHT22;39160;48.580;7.756;2023-06-22T19:59:43;25.00;93.60
53272;DHT22;39160;48.580;7.756;2023-06-22T20:04:37;24.70;94.40
53272;DHT22;39160;48.580;7.756;2023-06-22T20:09:27;24.50;94.80
53272;DHT22;39160;48.580;7.756;2023-06-22T20:14:19;23.90;95.80
53272;DHT22;39160;48.580;7.756;2023-06-22T20:19:11;24.00;96.30
53272;DHT22;39160;48.580;7.756;2023-06-22T20:24:09;24.30;96.80
53272;DHT22;39160;48.580;7.756;2023-06-22T20:29:00;24.40;96.90
53272;DHT22;39160;48.580;7.756;2023-06-22T20:34:11;24.60;97.30
53272;DHT22;39160;48.580;7.756;2023-06-22T20:39:01;24.90;97.60
53272;DHT22;39160;48.580;7.756;2023-06-22T20:43:53;25.00;97.30
53272;DHT22;39160;48.580;7.756;2023-06-22T20:48:43;24.80;98.10
53272;DHT22;39160;48.580;7.756;2023-06-22T20:53:34;25.10;98.10
53272;DHT22;39160;48.580;7.756;2023-06-22T20:58:25;25.00;98.40
53272;DHT22;39160;48.580;7.756;2023-06-22T21:03:16;25.10;98.50
53272;DHT22;39160;48.580;7.756;2023-06-22T21:08:06;25.20;98.70
53272;DHT22;39160;48.580;7.756;2023-06-22T21:12:57;25.10;99.00
53272;DHT22;39160;48.580;7.756;2023-06-22T21:17:48;25.10;99.30
53272;DHT22;39160;48.580;7.756;2023-06-22T21:22:39;24.90;99.80
53272;DHT22;39160;48.580;7.756;2023-06-22T21:27:29;24.60;99.90
53272;DHT22;39160;48.580;7.756;2023-06-22T21:32:20;24.90;99.90
53272;DHT22;39160;48.580;7.756;2023-06-22T21:37:11;24.70;99.90
53272;DHT22;39160;48.580;7.756;2023-06-22T21:42:01;24.90;99.90
53272;DHT22;39160;48.580;7.756;2023-06-22T21:46:52;24.60;99.90
53272;DHT22;39160;48.580;7.756;2023-06-22T21:51:43;24.50;99.90
53272;DHT22;39160;48.580;7.756;2023-06-22T21:56:34;24.40;99.90
53272;DHT22;39160;48.580;7.756;2023-06-22T22:01:24;24.50;99.90
53272;DHT22;39160;48.580;7.756;2023-06-22T22:06:15;24.50;99.90
53272;DHT22;39160;48.580;7.756;2023-06-22T22:11:06;24.50;99.90
53272;DHT22;39160;48.580;7.756;2023-06-22T22:15:57;24.30;99.90
53272;DHT22;39160;48.580;7.756;2023-06-22T22:20:47;24.20;99.90
53272;DHT22;39160;48.580;7.756;2023-06-22T22:25:38;24.10;99.90
53272;DHT22;39160;48.580;7.756;2023-06-22T22:30:29;24.00;99.90
53272;DHT22;39160;48.580;7.756;2023-06-22T22:35:20;23.90;99.90
53272;DHT22;39160;48.580;7.756;2023-06-22T22:40:11;23.70;99.90
53272;DHT22;39160;48.580;7.756;2023-06-22T22:45:02;23.80;99.90
53272;DHT22;39160;48.580;7.756;2023-06-22T22:49:57;23.80;99.90
53272;DHT22;39160;48.580;7.756;2023-06-22T22:54:48;23.80;99.90
53272;DHT22;39160;48.580;7.756;2023-06-22T22:59:39;23.30;99.90
53272;DHT22;39160;48.580;7.756;2023-06-22T23:04:30;23.10;99.90
53272;DHT22;39160;48.580;7.756;2023-06-22T23:09:20;23.00;99.90
53272;DHT22;39160;48.580;7.756;2023-06-22T23:14:11;22.80;99.90
53272;DHT22;39160;48.580;7.756;2023-06-22T23:19:02;22.90;99.90
53272;DHT22;39160;48.580;7.756;2023-06-22T23:23:52;22.90;99.90
53272;DHT22;39160;48.580;7.756;2023-06-22T23:28:45;22.90;99.90
53272;DHT22;39160;48.580;7.756;2023-06-22T23:33:36;22.70;99.90
53272;DHT22;39160;48.580;7.756;2023-06-22T23:38:28;22.50;99.90
53272;DHT22;39160;48.580;7.756;2023-06-22T23:43:18;22.60;99.90
53272;DHT22;39160;48.580;7.756;2023-06-22T23:48:09;22.50;99.90
53272;DHT22;39160;48.580;7.756;2023-06-22T23:53:01;22.20;99.90
53272;DHT22;39160;48.580;7.756;2023-06-22T23:57:52;22.20;99.90
